sensor_id;sensor_type;location;lat;lon;timestamp;P1;durP1;ratioP1;P2;durP2;ratioP2
27145;SDS011;17980;51.744;7.190;2023-03-09T00:01:31;32.60;;;22.43;;
27145;SDS011;17980;51.744;7.190;2023-03-09T00:04:02;33.03;;;21.27;;
27145;SDS011;17980;51.744;7.190;2023-03-09T00:06:33;32.80;;;21.57;;
27145;SDS011;17980;51.744;7.190;2023-03-09T00:09:03;36.43;;;24.13;;
27145;SDS011;17980;51.744;7.190;2023-03-09T00:11:44;33.40;;;22.57;;
27145;SDS011;17980;51.744;7.190;2023-03-09T00:14:17;33.70;;;22.77;;
27145;SDS011;17980;51.744;7.190;2023-03-09T00:16:48;36.50;;;24.97;;
27145;SDS011;17980;51.744;7.190;2023-03-09T00:19:18;36.03;;;23.93;;
27145;SDS011;17980;51.744;7.190;2023-03-09T00:22:01;36.67;;;23.37;;
27145;SDS011;17980;51.744;7.190;2023-03-09T00:24:28;39.00;;;24.37;;
27145;SDS011;17980;51.744;7.190;2023-03-09T00:26:57;39.13;;;25.60;;
27145;SDS011;17980;51.744;7.190;2023-03-09T00:29:34;37.67;;;25.40;;
27145;SDS011;17980;51.744;7.190;2023-03-09T00:32:01;38.90;;;25.90;;
27145;SDS011;17980;51.744;7.190;2023-03-09T00:34:28;42.00;;;26.60;;
27145;SDS011;17980;51.744;7.190;2023-03-09T00:36:55;37.63;;;25.80;;
27145;SDS011;17980;51.744;7.190;2023-03-09T00:39:23;44.97;;;28.23;;
27145;SDS011;17980;51.744;7.190;2023-03-09T00:41:50;42.00;;;26.67;;
27145;SDS011;17980;51.744;7.190;2023-03-09T00:44:17;44.57;;;28.17;;
27145;SDS011;17980;51.744;7.190;2023-03-09T00:46:45;46.33;;;27.67;;
27145;SDS011;17980;51.744;7.190;2023-03-09T00:49:13;42.00;;;27.07;;
27145;SDS011;17980;51.744;7.190;2023-03-09T00:54:17;47.90;;;27.30;;
27145;SDS011;17980;51.744;7.190;2023-03-09T00:56:44;46.50;;;29.07;;
27145;SDS011;17980;51.744;7.190;2023-03-09T00:59:21;48.20;;;28.87;;
27145;SDS011;17980;51.744;7.190;2023-03-09T01:01:48;48.50;;;29.13;;
27145;SDS011;17980;51.744;7.190;2023-03-09T01:04:16;47.77;;;29.17;;
27145;SDS011;17980;51.744;7.190;2023-03-09T01:06:43;46.37;;;29.30;;
27145;SDS011;17980;51.744;7.190;2023-03-09T01:09:10;47.40;;;29.13;;
27145;SDS011;17980;51.744;7.190;2023-03-09T01:11:47;46.03;;;29.30;;
27145;SDS011;17980;51.744;7.190;2023-03-09T01:16:50;49.90;;;29.90;;
27145;SDS011;17980;51.744;7.190;2023-03-09T01:19:18;49.50;;;29.03;;
27145;SDS011;17980;51.744;7.190;2023-03-09T01:21:54;50.63;;;30.33;;
27145;SDS011;17980;51.744;7.190;2023-03-09T01:24:22;49.87;;;30.40;;
27145;SDS011;17980;51.744;7.190;2023-03-09T01:26:51;52.03;;;30.87;;
27145;SDS011;17980;51.744;7.190;2023-03-09T01:29:28;48.33;;;29.77;;
27145;SDS011;17980;51.744;7.190;2023-03-09T01:31:55;49.60;;;29.33;;
27145;SDS011;17980;51.744;7.190;2023-03-09T01:34:22;47.23;;;29.50;;
27145;SDS011;17980;51.744;7.190;2023-03-09T01:36:49;50.13;;;30.97;;
27145;SDS011;17980;51.744;7.190;2023-03-09T01:39:17;50.97;;;31.00;;
27145;SDS011;17980;51.744;7.190;2023-03-09T01:41:44;47.97;;;28.90;;
27145;SDS011;17980;51.744;7.190;2023-03-09T01:44:12;46.23;;;28.10;;
27145;SDS011;17980;51.744;7.190;2023-03-09T01:46:50;48.53;;;29.63;;
27145;SDS011;17980;51.744;7.190;2023-03-09T01:49:22;47.93;;;28.00;;
27145;SDS011;17980;51.744;7.190;2023-03-09T01:51:55;45.30;;;27.50;;
27145;SDS011;17980;51.744;7.190;2023-03-09T01:54:35;47.90;;;27.93;;
27145;SDS011;17980;51.744;7.190;2023-03-09T01:57:07;48.17;;;28.30;;
27145;SDS011;17980;51.744;7.190;2023-03-09T01:59:45;47.73;;;27.97;;
27145;SDS011;17980;51.744;7.190;2023-03-09T02:02:16;45.13;;;28.00;;
27145;SDS011;17980;51.744;7.190;2023-03-09T02:04:44;48.07;;;29.17;;
27145;SDS011;17980;51.744;7.190;2023-03-09T02:07:13;50.70;;;28.87;;
27145;SDS011;17980;51.744;7.190;2023-03-09T02:09:46;46.70;;;27.53;;
27145;SDS011;17980;51.744;7.190;2023-03-09T02:12:19;49.10;;;29.47;;
27145;SDS011;17980;51.744;7.190;2023-03-09T02:14:47;44.30;;;27.00;;
27145;SDS011;17980;51.744;7.190;2023-03-09T02:17:15;46.27;;;28.00;;
27145;SDS011;17980;51.744;7.190;2023-03-09T02:19:48;43.83;;;28.00;;
27145;SDS011;17980;51.744;7.190;2023-03-09T02:22:39;45.70;;;27.27;;
27145;SDS011;17980;51.744;7.190;2023-03-09T02:25:13;42.10;;;26.97;;
27145;SDS011;17980;51.744;7.190;2023-03-09T02:27:46;46.07;;;27.17;;
27145;SDS011;17980;51.744;7.190;2023-03-09T02:30:29;40.63;;;26.70;;
27145;SDS011;17980;51.744;7.190;2023-03-09T02:33:05;44.93;;;28.20;;
27145;SDS011;17980;51.744;7.190;2023-03-09T02:35:35;45.37;;;27.57;;
27145;SDS011;17980;51.744;7.190;2023-03-09T02:38:03;44.73;;;26.87;;
27145;SDS011;17980;51.744;7.190;2023-03-09T02:40:34;45.87;;;26.83;;
27145;SDS011;17980;51.744;7.190;2023-03-09T02:43:02;45.27;;;28.07;;
27145;SDS011;17980;51.744;7.190;2023-03-09T02:45:31;42.33;;;26.57;;
27145;SDS011;17980;51.744;7.190;2023-03-09T02:48:08;46.57;;;27.67;;
27145;SDS011;17980;51.744;7.190;2023-03-09T02:50:35;45.93;;;27.17;;
27145;SDS011;17980;51.744;7.190;2023-03-09T02:53:12;44.20;;;27.43;;
27145;SDS011;17980;51.744;7.190;2023-03-09T02:55:39;42.83;;;26.50;;
27145;SDS011;17980;51.744;7.190;2023-03-09T02:58:16;41.00;;;26.33;;
27145;SDS011;17980;51.744;7.190;2023-03-09T03:00:43;43.17;;;27.07;;
27145;SDS011;17980;51.744;7.190;2023-03-09T03:03:11;38.37;;;24.33;;
27145;SDS011;17980;51.744;7.190;2023-03-09T03:05:38;40.93;;;26.27;;
27145;SDS011;17980;51.744;7.190;2023-03-09T03:08:05;43.83;;;27.23;;
27145;SDS011;17980;51.744;7.190;2023-03-09T03:10:42;41.60;;;27.07;;
27145;SDS011;17980;51.744;7.190;2023-03-09T03:13:09;41.90;;;26.33;;
27145;SDS011;17980;51.744;7.190;2023-03-09T03:15:37;42.20;;;27.07;;
27145;SDS011;17980;51.744;7.190;2023-03-09T03:18:04;41.87;;;25.97;;
27145;SDS011;17980;51.744;7.190;2023-03-09T03:20:31;43.53;;;26.63;;
27145;SDS011;17980;51.744;7.190;2023-03-09T03:22:58;43.20;;;26.67;;
27145;SDS011;17980;51.744;7.190;2023-03-09T03:25:35;44.40;;;27.80;;
27145;SDS011;17980;51.744;7.190;2023-03-09T03:28:03;42.13;;;26.40;;
27145;SDS011;17980;51.744;7.190;2023-03-09T03:30:50;45.80;;;27.03;;
27145;SDS011;17980;51.744;7.190;2023-03-09T03:33:18;44.97;;;27.63;;
27145;SDS011;17980;51.744;7.190;2023-03-09T03:35:46;48.50;;;28.30;;
27145;SDS011;17980;51.744;7.190;2023-03-09T03:38:13;44.97;;;28.07;;
27145;SDS011;17980;51.744;7.190;2023-03-09T03:40:41;45.87;;;28.13;;
27145;SDS011;17980;51.744;7.190;2023-03-09T03:43:08;47.67;;;29.00;;
27145;SDS011;17980;51.744;7.190;2023-03-09T03:45:35;42.83;;;27.13;;
27145;SDS011;17980;51.744;7.190;2023-03-09T03:48:03;51.47;;;30.73;;
27145;SDS011;17980;51.744;7.190;2023-03-09T03:50:30;48.80;;;29.10;;
27145;SDS011;17980;51.744;7.190;2023-03-09T03:52:57;46.17;;;28.70;;
27145;SDS011;17980;51.744;7.190;2023-03-09T03:55:34;45.87;;;28.33;;
27145;SDS011;17980;51.744;7.190;2023-03-09T03:58:02;48.67;;;28.93;;
27145;SDS011;17980;51.744;7.190;2023-03-09T04:00:39;46.53;;;29.40;;
27145;SDS011;17980;51.744;7.190;2023-03-09T04:03:06;46.90;;;29.13;;
27145;SDS011;17980;51.744;7.190;2023-03-09T04:05:33;46.50;;;31.13;;
27145;SDS011;17980;51.744;7.190;2023-03-09T04:08:01;47.83;;;29.97;;
27145;SDS011;17980;51.744;7.190;2023-03-09T04:10:38;47.57;;;28.93;;
27145;SDS011;17980;51.744;7.190;2023-03-09T04:13:06;45.43;;;28.93;;
27145;SDS011;17980;51.744;7.190;2023-03-09T04:15:33;48.77;;;29.47;;
27145;SDS011;17980;51.744;7.190;2023-03-09T04:18:02;44.57;;;28.83;;
27145;SDS011;17980;51.744;7.190;2023-03-09T04:20:30;46.37;;;29.47;;
27145;SDS011;17980;51.744;7.190;2023-03-09T04:22:57;46.67;;;28.97;;
27145;SDS011;17980;51.744;7.190;2023-03-09T04:25:34;43.40;;;27.63;;
27145;SDS011;17980;51.744;7.190;2023-03-09T04:28:01;49.43;;;31.20;;
27145;SDS011;17980;51.744;7.190;2023-03-09T04:30:39;46.93;;;29.77;;
27145;SDS011;17980;51.744;7.190;2023-03-09T04:33:07;45.33;;;28.63;;
27145;SDS011;17980;51.744;7.190;2023-03-09T04:35:34;45.80;;;28.27;;
27145;SDS011;17980;51.744;7.190;2023-03-09T04:38:01;50.27;;;29.83;;
27145;SDS011;17980;51.744;7.190;2023-03-09T04:40:38;45.70;;;29.53;;
27145;SDS011;17980;51.744;7.190;2023-03-09T04:43:06;45.40;;;29.23;;
27145;SDS011;17980;51.744;7.190;2023-03-09T04:48:09;46.70;;;28.00;;
27145;SDS011;17980;51.744;7.190;2023-03-09T04:50:37;46.47;;;29.53;;
27145;SDS011;17980;51.744;7.190;2023-03-09T04:53:13;46.93;;;29.87;;
27145;SDS011;17980;51.744;7.190;2023-03-09T04:55:41;46.47;;;28.40;;
27145;SDS011;17980;51.744;7.190;2023-03-09T04:58:08;43.33;;;27.43;;
27145;SDS011;17980;51.744;7.190;2023-03-09T05:00:45;45.47;;;28.83;;
27145;SDS011;17980;51.744;7.190;2023-03-09T05:03:12;45.13;;;28.27;;
27145;SDS011;17980;51.744;7.190;2023-03-09T05:05:39;46.37;;;29.30;;
27145;SDS011;17980;51.744;7.190;2023-03-09T05:08:07;45.97;;;28.30;;
27145;SDS011;17980;51.744;7.190;2023-03-09T05:10:44;48.03;;;29.60;;
27145;SDS011;17980;51.744;7.190;2023-03-09T05:13:12;45.47;;;28.53;;
27145;SDS011;17980;51.744;7.190;2023-03-09T05:15:40;45.90;;;28.57;;
27145;SDS011;17980;51.744;7.190;2023-03-09T05:18:08;44.00;;;28.27;;
27145;SDS011;17980;51.744;7.190;2023-03-09T05:20:45;45.63;;;27.63;;
27145;SDS011;17980;51.744;7.190;2023-03-09T05:23:12;46.90;;;29.47;;
27145;SDS011;17980;51.744;7.190;2023-03-09T05:25:40;46.10;;;29.63;;
27145;SDS011;17980;51.744;7.190;2023-03-09T05:28:07;44.23;;;28.63;;
27145;SDS011;17980;51.744;7.190;2023-03-09T05:30:51;44.17;;;28.63;;
27145;SDS011;17980;51.744;7.190;2023-03-09T05:33:18;42.83;;;27.97;;
27145;SDS011;17980;51.744;7.190;2023-03-09T05:35:45;45.40;;;27.50;;
27145;SDS011;17980;51.744;7.190;2023-03-09T05:38:14;49.17;;;29.37;;
27145;SDS011;17980;51.744;7.190;2023-03-09T05:40:42;43.90;;;28.10;;
27145;SDS011;17980;51.744;7.190;2023-03-09T05:43:09;43.90;;;27.50;;
27145;SDS011;17980;51.744;7.190;2023-03-09T05:48:13;43.00;;;28.53;;
27145;SDS011;17980;51.744;7.190;2023-03-09T05:50:41;40.33;;;27.23;;
27145;SDS011;17980;51.744;7.190;2023-03-09T05:53:17;41.23;;;26.97;;
27145;SDS011;17980;51.744;7.190;2023-03-09T05:58:21;41.87;;;28.10;;
27145;SDS011;17980;51.744;7.190;2023-03-09T06:00:48;41.97;;;27.97;;
27145;SDS011;17980;51.744;7.190;2023-03-09T06:03:25;36.90;;;25.40;;
27145;SDS011;17980;51.744;7.190;2023-03-09T06:05:58;41.87;;;26.07;;
27145;SDS011;17980;51.744;7.190;2023-03-09T06:08:26;43.87;;;27.50;;
27145;SDS011;17980;51.744;7.190;2023-03-09T06:10:54;38.93;;;27.67;;
27145;SDS011;17980;51.744;7.190;2023-03-09T06:13:33;39.30;;;26.47;;
27145;SDS011;17980;51.744;7.190;2023-03-09T06:16:02;38.23;;;26.23;;
27145;SDS011;17980;51.744;7.190;2023-03-09T06:18:30;42.60;;;27.23;;
27145;SDS011;17980;51.744;7.190;2023-03-09T06:20:59;39.33;;;24.80;;
27145;SDS011;17980;51.744;7.190;2023-03-09T06:23:27;40.80;;;27.07;;
27145;SDS011;17980;51.744;7.190;2023-03-09T06:26:04;38.53;;;25.20;;
27145;SDS011;17980;51.744;7.190;2023-03-09T06:28:33;42.23;;;26.50;;
27145;SDS011;17980;51.744;7.190;2023-03-09T06:31:11;43.23;;;28.03;;
27145;SDS011;17980;51.744;7.190;2023-03-09T06:33:40;45.43;;;28.27;;
27145;SDS011;17980;51.744;7.190;2023-03-09T06:36:09;39.63;;;26.67;;
27145;SDS011;17980;51.744;7.190;2023-03-09T06:38:37;42.80;;;27.93;;
27145;SDS011;17980;51.744;7.190;2023-03-09T06:41:14;44.00;;;28.40;;
27145;SDS011;17980;51.744;7.190;2023-03-09T06:43:41;39.30;;;26.30;;
27145;SDS011;17980;51.744;7.190;2023-03-09T06:46:10;38.60;;;26.70;;
27145;SDS011;17980;51.744;7.190;2023-03-09T06:48:38;35.67;;;25.40;;
27145;SDS011;17980;51.744;7.190;2023-03-09T06:51:14;38.53;;;27.00;;
27145;SDS011;17980;51.744;7.190;2023-03-09T06:53:43;36.60;;;26.43;;
27145;SDS011;17980;51.744;7.190;2023-03-09T06:56:11;40.87;;;26.33;;
27145;SDS011;17980;51.744;7.190;2023-03-09T06:58:38;46.27;;;26.57;;
27145;SDS011;17980;51.744;7.190;2023-03-09T07:01:15;36.43;;;24.60;;
27145;SDS011;17980;51.744;7.190;2023-03-09T07:03:43;38.53;;;27.07;;
27145;SDS011;17980;51.744;7.190;2023-03-09T07:06:11;39.73;;;26.10;;
27145;SDS011;17980;51.744;7.190;2023-03-09T07:11:14;37.00;;;26.17;;
27145;SDS011;17980;51.744;7.190;2023-03-09T07:13:41;37.00;;;25.37;;
27145;SDS011;17980;51.744;7.190;2023-03-09T07:16:11;40.07;;;25.90;;
27145;SDS011;17980;51.744;7.190;2023-03-09T07:18:39;37.47;;;24.07;;
27145;SDS011;17980;51.744;7.190;2023-03-09T07:21:15;38.83;;;26.47;;
27145;SDS011;17980;51.744;7.190;2023-03-09T07:26:19;35.73;;;25.00;;
27145;SDS011;17980;51.744;7.190;2023-03-09T07:28:47;33.67;;;24.70;;
27145;SDS011;17980;51.744;7.190;2023-03-09T07:31:24;33.67;;;24.33;;
27145;SDS011;17980;51.744;7.190;2023-03-09T07:33:51;33.23;;;24.50;;
27145;SDS011;17980;51.744;7.190;2023-03-09T07:36:18;34.23;;;23.43;;
27145;SDS011;17980;51.744;7.190;2023-03-09T07:38:45;33.87;;;24.60;;
27145;SDS011;17980;51.744;7.190;2023-03-09T07:41:22;34.47;;;24.90;;
27145;SDS011;17980;51.744;7.190;2023-03-09T07:43:50;33.77;;;24.07;;
27145;SDS011;17980;51.744;7.190;2023-03-09T07:46:17;36.83;;;25.80;;
27145;SDS011;17980;51.744;7.190;2023-03-09T07:48:45;31.63;;;23.73;;
27145;SDS011;17980;51.744;7.190;2023-03-09T07:51:12;34.63;;;23.93;;
27145;SDS011;17980;51.744;7.190;2023-03-09T07:53:40;29.77;;;22.07;;
27145;SDS011;17980;51.744;7.190;2023-03-09T07:56:17;32.07;;;23.30;;
27145;SDS011;17980;51.744;7.190;2023-03-09T07:58:44;29.40;;;21.87;;
27145;SDS011;17980;51.744;7.190;2023-03-09T08:01:21;31.53;;;22.90;;
27145;SDS011;17980;51.744;7.190;2023-03-09T08:03:49;31.43;;;22.83;;
27145;SDS011;17980;51.744;7.190;2023-03-09T08:06:16;32.57;;;23.37;;
27145;SDS011;17980;51.744;7.190;2023-03-09T08:08:45;30.97;;;21.80;;
27145;SDS011;17980;51.744;7.190;2023-03-09T08:11:22;30.43;;;22.47;;
27145;SDS011;17980;51.744;7.190;2023-03-09T08:13:49;31.53;;;22.70;;
27145;SDS011;17980;51.744;7.190;2023-03-09T08:16:16;34.73;;;23.53;;
27145;SDS011;17980;51.744;7.190;2023-03-09T08:18:43;32.90;;;23.97;;
27145;SDS011;17980;51.744;7.190;2023-03-09T08:21:11;32.20;;;22.77;;
27145;SDS011;17980;51.744;7.190;2023-03-09T08:23:48;36.80;;;23.77;;
27145;SDS011;17980;51.744;7.190;2023-03-09T08:26:16;33.03;;;22.40;;
27145;SDS011;17980;51.744;7.190;2023-03-09T08:31:20;33.30;;;22.93;;
27145;SDS011;17980;51.744;7.190;2023-03-09T08:33:48;32.43;;;23.37;;
27145;SDS011;17980;51.744;7.190;2023-03-09T08:36:16;34.07;;;23.43;;
27145;SDS011;17980;51.744;7.190;2023-03-09T08:38:46;33.63;;;23.23;;
27145;SDS011;17980;51.744;7.190;2023-03-09T08:41:23;31.47;;;22.40;;
27145;SDS011;17980;51.744;7.190;2023-03-09T08:43:50;34.23;;;23.10;;
27145;SDS011;17980;51.744;7.190;2023-03-09T08:46:19;33.60;;;23.63;;
27145;SDS011;17980;51.744;7.190;2023-03-09T08:48:46;32.30;;;22.27;;
27145;SDS011;17980;51.744;7.190;2023-03-09T08:51:23;32.77;;;23.00;;
27145;SDS011;17980;51.744;7.190;2023-03-09T08:53:53;40.83;;;23.83;;
27145;SDS011;17980;51.744;7.190;2023-03-09T08:56:21;31.27;;;22.07;;
27145;SDS011;17980;51.744;7.190;2023-03-09T08:58:48;30.27;;;21.00;;
27145;SDS011;17980;51.744;7.190;2023-03-09T09:01:16;32.50;;;23.37;;
27145;SDS011;17980;51.744;7.190;2023-03-09T09:03:43;29.03;;;21.00;;
27145;SDS011;17980;51.744;7.190;2023-03-09T09:06:11;30.03;;;21.30;;
27145;SDS011;17980;51.744;7.190;2023-03-09T09:08:39;32.03;;;22.23;;
27145;SDS011;17980;51.744;7.190;2023-03-09T09:11:17;30.37;;;22.10;;
27145;SDS011;17980;51.744;7.190;2023-03-09T09:13:44;31.40;;;22.50;;
27145;SDS011;17980;51.744;7.190;2023-03-09T09:16:13;31.37;;;21.67;;
27145;SDS011;17980;51.744;7.190;2023-03-09T09:18:41;29.77;;;21.63;;
27145;SDS011;17980;51.744;7.190;2023-03-09T09:21:18;29.77;;;20.97;;
27145;SDS011;17980;51.744;7.190;2023-03-09T09:23:45;29.80;;;21.30;;
27145;SDS011;17980;51.744;7.190;2023-03-09T09:26:13;30.63;;;21.83;;
27145;SDS011;17980;51.744;7.190;2023-03-09T09:28:42;29.77;;;20.20;;
27145;SDS011;17980;51.744;7.190;2023-03-09T09:31:19;32.10;;;21.27;;
27145;SDS011;17980;51.744;7.190;2023-03-09T09:33:46;30.83;;;21.43;;
27145;SDS011;17980;51.744;7.190;2023-03-09T09:36:15;31.53;;;21.93;;
27145;SDS011;17980;51.744;7.190;2023-03-09T09:38:44;31.23;;;21.00;;
27145;SDS011;17980;51.744;7.190;2023-03-09T09:41:23;29.63;;;19.53;;
27145;SDS011;17980;51.744;7.190;2023-03-09T09:43:55;29.60;;;20.57;;
27145;SDS011;17980;51.744;7.190;2023-03-09T09:46:32;29.67;;;20.80;;
27145;SDS011;17980;51.744;7.190;2023-03-09T09:49:05;30.37;;;21.07;;
27145;SDS011;17980;51.744;7.190;2023-03-09T09:51:55;29.13;;;19.53;;
27145;SDS011;17980;51.744;7.190;2023-03-09T09:54:33;31.43;;;20.23;;
27145;SDS011;17980;51.744;7.190;2023-03-09T09:57:04;28.60;;;19.80;;
27145;SDS011;17980;51.744;7.190;2023-03-09T09:59:46;26.40;;;18.60;;
27145;SDS011;17980;51.744;7.190;2023-03-09T10:02:26;29.13;;;18.97;;
27145;SDS011;17980;51.744;7.190;2023-03-09T10:07:48;32.53;;;20.60;;
27145;SDS011;17980;51.744;7.190;2023-03-09T10:10:17;31.40;;;20.83;;
27145;SDS011;17980;51.744;7.190;2023-03-09T10:12:56;33.30;;;22.53;;
27145;SDS011;17980;51.744;7.190;2023-03-09T10:15:27;32.13;;;22.40;;
27145;SDS011;17980;51.744;7.190;2023-03-09T10:17:57;33.53;;;21.17;;
27145;SDS011;17980;51.744;7.190;2023-03-09T10:20:35;32.10;;;21.80;;
27145;SDS011;17980;51.744;7.190;2023-03-09T10:23:11;33.30;;;22.07;;
27145;SDS011;17980;51.744;7.190;2023-03-09T10:25:42;30.43;;;20.57;;
27145;SDS011;17980;51.744;7.190;2023-03-09T10:28:11;34.00;;;22.20;;
27145;SDS011;17980;51.744;7.190;2023-03-09T10:30:50;32.73;;;22.03;;
27145;SDS011;17980;51.744;7.190;2023-03-09T10:33:22;37.00;;;23.47;;
27145;SDS011;17980;51.744;7.190;2023-03-09T10:35:54;35.20;;;22.33;;
27145;SDS011;17980;51.744;7.190;2023-03-09T10:38:24;42.40;;;29.73;;
27145;SDS011;17980;51.744;7.190;2023-03-09T10:41:04;36.57;;;23.97;;
27145;SDS011;17980;51.744;7.190;2023-03-09T10:43:39;33.30;;;22.70;;
27145;SDS011;17980;51.744;7.190;2023-03-09T10:46:16;33.97;;;23.43;;
27145;SDS011;17980;51.744;7.190;2023-03-09T10:48:46;31.50;;;22.20;;
27145;SDS011;17980;51.744;7.190;2023-03-09T10:51:27;33.47;;;23.90;;
27145;SDS011;17980;51.744;7.190;2023-03-09T10:56:33;32.53;;;22.30;;
27145;SDS011;17980;51.744;7.190;2023-03-09T10:59:16;31.90;;;20.90;;
27145;SDS011;17980;51.744;7.190;2023-03-09T11:01:54;33.07;;;23.20;;
27145;SDS011;17980;51.744;7.190;2023-03-09T11:04:41;33.07;;;23.10;;
27145;SDS011;17980;51.744;7.190;2023-03-09T11:07:17;34.60;;;22.27;;
27145;SDS011;17980;51.744;7.190;2023-03-09T11:09:54;30.43;;;22.20;;
27145;SDS011;17980;51.744;7.190;2023-03-09T11:12:22;32.63;;;22.73;;
27145;SDS011;17980;51.744;7.190;2023-03-09T11:14:54;131.90;;;104.93;;
27145;SDS011;17980;51.744;7.190;2023-03-09T11:17:32;96.13;;;74.13;;
27145;SDS011;17980;51.744;7.190;2023-03-09T11:20:18;39.47;;;30.33;;
27145;SDS011;17980;51.744;7.190;2023-03-09T11:23:14;32.53;;;23.07;;
27145;SDS011;17980;51.744;7.190;2023-03-09T11:25:53;32.13;;;22.67;;
27145;SDS011;17980;51.744;7.190;2023-03-09T11:28:27;30.27;;;21.57;;
27145;SDS011;17980;51.744;7.190;2023-03-09T11:31:09;28.47;;;20.93;;
27145;SDS011;17980;51.744;7.190;2023-03-09T11:33:38;30.87;;;21.83;;
27145;SDS011;17980;51.744;7.190;2023-03-09T11:36:07;29.40;;;20.77;;
27145;SDS011;17980;51.744;7.190;2023-03-09T11:38:46;28.07;;;20.50;;
27145;SDS011;17980;51.744;7.190;2023-03-09T11:41:15;28.20;;;20.80;;
27145;SDS011;17980;51.744;7.190;2023-03-09T11:43:59;28.73;;;20.00;;
27145;SDS011;17980;51.744;7.190;2023-03-09T11:46:29;27.97;;;20.57;;
27145;SDS011;17980;51.744;7.190;2023-03-09T11:49:01;28.67;;;20.50;;
27145;SDS011;17980;51.744;7.190;2023-03-09T11:51:41;31.57;;;19.97;;
27145;SDS011;17980;51.744;7.190;2023-03-09T11:54:15;26.37;;;19.50;;
27145;SDS011;17980;51.744;7.190;2023-03-09T11:56:47;27.87;;;19.93;;
27145;SDS011;17980;51.744;7.190;2023-03-09T11:59:17;28.93;;;21.17;;
27145;SDS011;17980;51.744;7.190;2023-03-09T12:01:56;28.57;;;20.97;;
27145;SDS011;17980;51.744;7.190;2023-03-09T12:04:26;26.63;;;20.30;;
27145;SDS011;17980;51.744;7.190;2023-03-09T12:06:54;31.03;;;19.90;;
27145;SDS011;17980;51.744;7.190;2023-03-09T12:09:28;29.37;;;20.90;;
27145;SDS011;17980;51.744;7.190;2023-03-09T12:12:00;27.00;;;19.70;;
27145;SDS011;17980;51.744;7.190;2023-03-09T12:14:31;28.83;;;21.13;;
27145;SDS011;17980;51.744;7.190;2023-03-09T12:17:03;27.57;;;19.73;;
27145;SDS011;17980;51.744;7.190;2023-03-09T12:19:34;28.07;;;20.40;;
27145;SDS011;17980;51.744;7.190;2023-03-09T12:22:03;30.13;;;20.13;;
27145;SDS011;17980;51.744;7.190;2023-03-09T12:24:36;30.47;;;21.20;;
27145;SDS011;17980;51.744;7.190;2023-03-09T12:27:13;29.60;;;20.67;;
27145;SDS011;17980;51.744;7.190;2023-03-09T12:29:44;31.57;;;21.83;;
27145;SDS011;17980;51.744;7.190;2023-03-09T12:34:54;28.70;;;19.77;;
27145;SDS011;17980;51.744;7.190;2023-03-09T12:40:33;30.63;;;19.77;;
27145;SDS011;17980;51.744;7.190;2023-03-09T12:49:24;28.77;;;20.87;;
27145;SDS011;17980;51.744;7.190;2023-03-09T12:52:14;31.10;;;22.70;;
27145;SDS011;17980;51.744;7.190;2023-03-09T12:55:00;28.90;;;21.47;;
27145;SDS011;17980;51.744;7.190;2023-03-09T12:57:38;30.87;;;21.60;;
27145;SDS011;17980;51.744;7.190;2023-03-09T13:00:20;34.27;;;21.97;;
27145;SDS011;17980;51.744;7.190;2023-03-09T13:03:05;35.23;;;22.67;;
27145;SDS011;17980;51.744;7.190;2023-03-09T13:05:42;34.43;;;22.30;;
27145;SDS011;17980;51.744;7.190;2023-03-09T13:08:19;36.20;;;23.53;;
27145;SDS011;17980;51.744;7.190;2023-03-09T13:11:20;34.80;;;22.03;;
27145;SDS011;17980;51.744;7.190;2023-03-09T13:13:56;34.53;;;22.30;;
27145;SDS011;17980;51.744;7.190;2023-03-09T13:22:19;34.20;;;22.27;;
27145;SDS011;17980;51.744;7.190;2023-03-09T13:28:03;33.23;;;23.23;;
27145;SDS011;17980;51.744;7.190;2023-03-09T13:30:46;34.00;;;23.17;;
27145;SDS011;17980;51.744;7.190;2023-03-09T13:33:16;32.37;;;22.27;;
27145;SDS011;17980;51.744;7.190;2023-03-09T13:35:51;34.17;;;23.50;;
27145;SDS011;17980;51.744;7.190;2023-03-09T13:41:02;34.47;;;23.20;;
27145;SDS011;17980;51.744;7.190;2023-03-09T13:43:32;32.70;;;22.20;;
27145;SDS011;17980;51.744;7.190;2023-03-09T13:46:05;35.67;;;24.30;;
27145;SDS011;17980;51.744;7.190;2023-03-09T13:48:42;34.40;;;22.27;;
27145;SDS011;17980;51.744;7.190;2023-03-09T13:51:23;36.83;;;24.27;;
27145;SDS011;17980;51.744;7.190;2023-03-09T13:53:53;36.50;;;23.87;;
27145;SDS011;17980;51.744;7.190;2023-03-09T13:56:20;36.30;;;24.17;;
27145;SDS011;17980;51.744;7.190;2023-03-09T13:58:58;36.40;;;25.13;;
27145;SDS011;17980;51.744;7.190;2023-03-09T14:01:26;38.73;;;24.17;;
27145;SDS011;17980;51.744;7.190;2023-03-09T14:04:04;38.93;;;24.30;;
27145;SDS011;17980;51.744;7.190;2023-03-09T14:06:31;38.03;;;24.27;;
27145;SDS011;17980;51.744;7.190;2023-03-09T14:09:16;36.43;;;24.00;;
27145;SDS011;17980;51.744;7.190;2023-03-09T14:11:48;35.83;;;23.33;;
27145;SDS011;17980;51.744;7.190;2023-03-09T14:14:25;38.57;;;25.53;;
27145;SDS011;17980;51.744;7.190;2023-03-09T14:16:54;38.00;;;23.90;;
27145;SDS011;17980;51.744;7.190;2023-03-09T14:19:23;39.30;;;23.67;;
27145;SDS011;17980;51.744;7.190;2023-03-09T14:22:00;36.10;;;23.17;;
27145;SDS011;17980;51.744;7.190;2023-03-09T14:24:29;36.80;;;23.63;;
27145;SDS011;17980;51.744;7.190;2023-03-09T14:27:10;38.60;;;22.70;;
27145;SDS011;17980;51.744;7.190;2023-03-09T14:29:48;36.57;;;23.17;;
27145;SDS011;17980;51.744;7.190;2023-03-09T14:32:16;37.33;;;23.80;;
27145;SDS011;17980;51.744;7.190;2023-03-09T14:34:49;39.67;;;24.27;;
27145;SDS011;17980;51.744;7.190;2023-03-09T14:37:20;37.23;;;22.73;;
27145;SDS011;17980;51.744;7.190;2023-03-09T14:39:57;33.80;;;21.63;;
27145;SDS011;17980;51.744;7.190;2023-03-09T14:42:27;33.43;;;21.73;;
27145;SDS011;17980;51.744;7.190;2023-03-09T14:45:18;32.73;;;20.67;;
27145;SDS011;17980;51.744;7.190;2023-03-09T14:47:50;35.37;;;23.00;;
27145;SDS011;17980;51.744;7.190;2023-03-09T14:50:28;35.50;;;23.73;;
27145;SDS011;17980;51.744;7.190;2023-03-09T14:52:57;37.27;;;22.73;;
27145;SDS011;17980;51.744;7.190;2023-03-09T14:55:38;39.10;;;22.87;;
27145;SDS011;17980;51.744;7.190;2023-03-09T14:58:21;39.47;;;23.23;;
27145;SDS011;17980;51.744;7.190;2023-03-09T15:00:50;34.90;;;23.23;;
27145;SDS011;17980;51.744;7.190;2023-03-09T15:03:19;40.30;;;25.43;;
27145;SDS011;17980;51.744;7.190;2023-03-09T15:05:56;42.33;;;25.77;;
27145;SDS011;17980;51.744;7.190;2023-03-09T15:11:00;41.50;;;24.83;;
27145;SDS011;17980;51.744;7.190;2023-03-09T15:13:35;43.20;;;26.73;;
27145;SDS011;17980;51.744;7.190;2023-03-09T15:16:29;42.97;;;26.50;;
27145;SDS011;17980;51.744;7.190;2023-03-09T15:18:59;44.80;;;27.17;;
27145;SDS011;17980;51.744;7.190;2023-03-09T15:21:37;44.47;;;26.80;;
27145;SDS011;17980;51.744;7.190;2023-03-09T15:24:04;52.60;;;30.70;;
27145;SDS011;17980;51.744;7.190;2023-03-09T15:26:33;45.97;;;28.27;;
27145;SDS011;17980;51.744;7.190;2023-03-09T15:29:00;45.60;;;27.07;;
27145;SDS011;17980;51.744;7.190;2023-03-09T15:31:43;44.33;;;29.07;;
27145;SDS011;17980;51.744;7.190;2023-03-09T15:34:11;47.73;;;29.73;;
27145;SDS011;17980;51.744;7.190;2023-03-09T15:36:45;47.40;;;28.67;;
27145;SDS011;17980;51.744;7.190;2023-03-09T15:39:30;51.60;;;31.40;;
27145;SDS011;17980;51.744;7.190;2023-03-09T15:42:06;45.93;;;29.37;;